Saint Louis, MO (63145)

4:52 PM CDT on April 25, 2015 (GMT -0500)
1 Mile South of St. Louis Lambert Airport | | Change Station
CLOSE
Current Station
Personal Weather Station
Location: Woodson Terrace, MO
Elevation: 591 ft
Nearby Weather Stations

Elev 591 ft 38.72 °N, 90.36 °W | Updated 0 second ago

Light Rain
Light Rain Mist
56.5 °F
Feels Like 56.5 °F
N
4.0
Wind Variable Wind from NNE
Gusts 7.0 mph

Today
High -- | Low -- °F
--% Chance of Precip.
Yesterday
High -- | Low -- °F
Precip. -- in
6:11 AM 7:47 PM
Waxing Crescent, 49% visible
Pressure 29.54 in
Visibility 4.0 miles
Clouds Overcast 500 ft
Dew Point 55 °F
Humidity 94%
Rainfall 0.22 in
Snow Depth Not available.
UV 1 out of 12
Pollen 3.50 out of 12
Air Quality Not available.
Flu Activity Local Activity
SPECI KSTL 252127Z 01008KT 4SM -RA BR OVC005 15/13 A2954 RMK AO2 RAB2058 P0002 $

More Conditions Fewer Conditions

Pressure 29.54 in
Visibility 4.0 miles
Clouds Overcast 500 ft
Dew Point 55 °F
Humidity 94%
Rainfall 0.22 in
Snow Depth Not available.
UV 1 out of 12
Pollen 3.50 out of 12
Air Quality Not available.
Flu Activity Local Activity
SPECI KSTL 252127Z 01008KT 4SM -RA BR OVC005 15/13 A2954 RMK AO2 RAB2058 P0002 $

More Conditions Fewer Conditions

10-Day Weather Forecast

Almanac

Astronomy

Apr. 25, 2015 Rise Set
Actual Time
Civil Twilight
Nautical Twilight
Astronomical Twilight
Moon
Length of Visible Light
Length of Day
Tomorrow will be .
, % of the Moon is Illuminated

Today's Extremes

State Highs State Lows

Community

WunderPhotos

Upload Photos

1,816,820 photos uploaded!

WunderBlogs® & News

Nearby

Air Quality

  Air Quality AQ Index Pollutant
Not available.

Snow Depth

Station Depth Elevation

Earthquake Activity

City Distance Mag. Time & Date
Minimum magnitude displayed is 2.5.

Coastal Water Temperatures

Place Temperature

Stations

Nearby Weather Stations

Station Location Temp. Windchill Dew Point Humidity Wind Precip. Elev Updated Type